createdAt,value
2022-12-25T00:01:52.586Z,18.48
2022-12-25T00:04:20.724Z,17.30
2022-12-25T00:06:48.817Z,17.08
2022-12-25T00:09:18.494Z,17.85
2022-12-25T00:11:46.533Z,18.83
2022-12-25T00:14:14.598Z,17.92
2022-12-25T00:16:42.774Z,17.48
2022-12-25T00:19:10.922Z,16.60
2022-12-25T00:21:39.001Z,16.17
2022-12-25T00:24:07.742Z,16.60
2022-12-25T00:26:37.172Z,17.83
2022-12-25T00:29:05.240Z,17.48
2022-12-25T00:31:34.649Z,16.88
2022-12-25T00:34:02.799Z,16.60
2022-12-25T00:36:33.635Z,17.25
2022-12-25T00:39:04.880Z,16.05
2022-12-25T00:41:50.258Z,17.27
2022-12-25T00:44:19.700Z,16.67
2022-12-25T00:46:47.832Z,17.15
2022-12-25T00:49:16.003Z,16.48
2022-12-25T00:51:44.193Z,18.63
2022-12-25T00:54:12.226Z,16.15
2022-12-25T00:56:40.237Z,17.65
2022-12-25T00:59:08.487Z,16.70
2022-12-25T01:01:40.181Z,15.85
2022-12-25T01:04:08.871Z,15.90
2022-12-25T01:06:36.893Z,16.58
2022-12-25T01:09:22.647Z,17.65
2022-12-25T01:11:50.727Z,18.67
2022-12-25T01:14:18.773Z,18.38
2022-12-25T01:16:48.241Z,19.00
2022-12-25T01:19:16.296Z,17.83
2022-12-25T01:21:44.349Z,18.05
2022-12-25T01:24:12.405Z,16.15
2022-12-25T01:26:40.420Z,16.52
2022-12-25T01:29:08.466Z,15.87
2022-12-25T01:31:36.813Z,16.92
2022-12-25T01:34:06.257Z,16.35
2022-12-25T01:36:34.245Z,17.03
2022-12-25T01:39:02.282Z,16.48
2022-12-25T01:41:30.402Z,15.70
2022-12-25T01:44:02.289Z,15.70
2022-12-25T01:46:31.497Z,16.10
2022-12-25T01:49:03.270Z,15.25
2022-12-25T01:51:36.612Z,16.40
2022-12-25T01:54:08.194Z,17.15
2022-12-25T01:56:38.279Z,17.85
2022-12-25T01:59:08.808Z,16.60
2022-12-25T02:01:37.087Z,16.92
2022-12-25T02:04:09.729Z,16.00
2022-12-25T02:06:39.129Z,17.15
2022-12-25T02:09:07.404Z,15.60
2022-12-25T02:11:53.221Z,17.15
2022-12-25T02:14:22.285Z,16.65
2022-12-25T02:16:57.397Z,17.63
2022-12-25T02:19:44.368Z,16.38
2022-12-25T02:22:25.627Z,15.60
2022-12-25T02:25:14.364Z,16.92
2022-12-25T02:28:00.172Z,16.67
2022-12-25T02:30:33.991Z,16.95
2022-12-25T02:33:20.215Z,16.23
2022-12-25T02:35:53.182Z,16.97
2022-12-25T02:38:27.337Z,17.70
2022-12-25T02:40:57.943Z,17.75
2022-12-25T02:43:50.034Z,16.90
2022-12-25T02:46:37.456Z,17.35
2022-12-25T02:49:25.645Z,15.73
2022-12-25T02:52:15.353Z,16.58
2022-12-25T02:55:04.088Z,16.88
2022-12-25T02:57:54.021Z,16.30
2022-12-25T03:00:40.961Z,16.20
2022-12-25T03:03:30.800Z,16.58
2022-12-25T03:06:25.636Z,15.55
2022-12-25T03:09:17.347Z,16.17
2022-12-25T03:11:47.680Z,16.38
2022-12-25T03:14:33.283Z,16.75
2022-12-25T03:17:02.902Z,16.35
2022-12-25T03:19:51.805Z,17.77
2022-12-25T03:22:43.205Z,16.92
2022-12-25T03:25:28.159Z,17.70
2022-12-25T03:27:57.875Z,18.27
2022-12-25T03:30:48.168Z,17.15
2022-12-25T03:33:44.538Z,16.95
2022-12-25T03:36:18.797Z,16.65
2022-12-25T03:39:27.678Z,16.92
2022-12-25T03:42:18.776Z,17.95
2022-12-25T03:45:10.527Z,17.95
2022-12-25T03:47:58.017Z,16.95
2022-12-25T03:50:51.373Z,17.70
2022-12-25T03:53:43.255Z,17.02
2022-12-25T03:56:29.880Z,16.75
2022-12-25T03:59:23.162Z,17.08
2022-12-25T04:02:09.518Z,16.83
2022-12-25T04:04:55.487Z,15.82
2022-12-25T04:07:42.442Z,18.13
2022-12-25T04:10:28.761Z,18.95
2022-12-25T04:13:13.933Z,23.65
2022-12-25T04:15:59.522Z,22.05
2022-12-25T04:18:44.873Z,18.23
2022-12-25T04:21:30.040Z,18.17
2022-12-25T04:24:17.215Z,16.80
2022-12-25T04:27:02.317Z,17.23
2022-12-25T04:29:47.655Z,17.45
2022-12-25T04:32:32.947Z,17.38
2022-12-25T04:35:20.505Z,16.15
2022-12-25T04:37:48.537Z,17.35
2022-12-25T04:40:18.312Z,16.33
2022-12-25T04:42:46.427Z,17.30
2022-12-25T04:45:14.461Z,16.63
2022-12-25T04:47:42.601Z,16.80
2022-12-25T04:50:11.167Z,17.83
2022-12-25T04:52:40.708Z,16.88
2022-12-25T04:55:11.066Z,16.05
2022-12-25T04:57:40.787Z,16.27
2022-12-25T05:00:10.185Z,15.98
2022-12-25T05:02:38.449Z,16.48
2022-12-25T05:05:07.051Z,16.00
2022-12-25T05:07:35.087Z,16.85
2022-12-25T05:10:03.157Z,17.35
2022-12-25T05:12:31.187Z,17.67
2022-12-25T05:15:00.595Z,17.40
2022-12-25T05:17:28.673Z,16.65
2022-12-25T05:19:56.765Z,17.70
2022-12-25T05:22:24.824Z,16.48
2022-12-25T05:24:52.879Z,16.27
2022-12-25T05:27:20.908Z,17.55
2022-12-25T05:29:49.035Z,17.77
2022-12-25T05:32:18.458Z,17.60
2022-12-25T05:34:46.459Z,17.88
2022-12-25T05:37:14.888Z,17.05
2022-12-25T05:39:42.936Z,18.48
2022-12-25T05:42:10.979Z,17.73
2022-12-25T05:44:39.022Z,18.20
2022-12-25T05:47:07.109Z,18.30
2022-12-25T05:49:36.515Z,18.23
2022-12-25T05:52:04.930Z,19.95
2022-12-25T05:54:33.018Z,18.85
2022-12-25T05:57:01.034Z,19.08
2022-12-25T05:59:30.728Z,19.80
2022-12-25T06:01:58.888Z,18.65
2022-12-25T06:04:27.515Z,19.42
2022-12-25T06:06:57.000Z,19.45
2022-12-25T06:09:25.045Z,18.80
2022-12-25T06:11:53.052Z,19.80
2022-12-25T06:14:21.088Z,20.10
2022-12-25T06:16:52.643Z,19.10
2022-12-25T06:19:21.378Z,19.95
2022-12-25T06:21:49.800Z,20.05
2022-12-25T06:24:21.497Z,19.45
2022-12-25T06:26:49.942Z,20.95
2022-12-25T06:29:18.117Z,20.67
2022-12-25T06:31:46.419Z,20.38
2022-12-25T06:34:16.475Z,19.90
2022-12-25T06:36:44.618Z,18.95
2022-12-25T06:39:12.649Z,20.75
2022-12-25T06:41:42.080Z,19.73
2022-12-25T06:44:10.248Z,21.85
2022-12-25T06:46:38.331Z,20.10
2022-12-25T06:49:06.663Z,19.02
2022-12-25T06:51:35.198Z,20.40
2022-12-25T06:54:04.343Z,21.65
2022-12-25T06:56:33.442Z,19.85
2022-12-25T06:59:04.962Z,20.58
2022-12-25T07:01:36.900Z,20.67
2022-12-25T07:04:07.079Z,20.70
2022-12-25T07:06:35.609Z,20.63
2022-12-25T07:09:03.829Z,20.83
2022-12-25T07:11:31.891Z,21.23
2022-12-25T07:13:59.927Z,20.13
2022-12-25T07:16:29.651Z,21.17
2022-12-25T07:19:00.111Z,21.85
2022-12-25T07:21:28.248Z,21.58
2022-12-25T07:23:56.253Z,22.17
2022-12-25T07:26:24.304Z,22.30
2022-12-25T07:28:52.404Z,22.05
2022-12-25T07:31:20.479Z,21.67
2022-12-25T07:33:53.736Z,22.00
2022-12-25T07:36:22.196Z,21.45
2022-12-25T07:38:51.004Z,22.15
2022-12-25T07:41:19.107Z,22.92
2022-12-25T07:43:50.921Z,22.50
2022-12-25T07:46:19.118Z,21.85
2022-12-25T07:48:47.169Z,21.63
2022-12-25T07:51:17.358Z,22.33
2022-12-25T07:53:45.467Z,21.65
2022-12-25T07:56:15.822Z,21.63
2022-12-25T07:58:44.733Z,23.08
2022-12-25T08:01:14.988Z,23.05
2022-12-25T08:03:43.332Z,21.27
2022-12-25T08:06:12.373Z,22.10
2022-12-25T08:08:42.212Z,22.15
2022-12-25T08:11:10.915Z,22.70
2022-12-25T08:13:39.222Z,23.63
2022-12-25T08:16:09.730Z,22.85
2022-12-25T08:18:38.833Z,24.17
2022-12-25T08:21:09.684Z,21.52
2022-12-25T08:23:39.590Z,22.65
2022-12-25T08:26:12.098Z,22.70
2022-12-25T08:28:40.165Z,22.63
2022-12-25T08:31:13.228Z,21.70
2022-12-25T08:33:41.345Z,21.05
2022-12-25T08:36:10.945Z,22.25
2022-12-25T08:38:39.813Z,21.98
2022-12-25T08:41:09.864Z,21.77
2022-12-25T08:43:37.921Z,21.17
2022-12-25T08:46:06.916Z,21.42
2022-12-25T08:48:35.656Z,21.05
2022-12-25T08:51:04.597Z,20.65
2022-12-25T08:53:32.651Z,19.48
2022-12-25T08:56:04.382Z,19.40
2022-12-25T08:58:34.018Z,18.60
2022-12-25T09:01:02.301Z,18.95
2022-12-25T09:03:32.429Z,19.20
2022-12-25T09:06:04.201Z,17.85
2022-12-25T09:08:32.351Z,18.15
2022-12-25T09:11:03.159Z,18.48
2022-12-25T09:13:31.241Z,18.63
2022-12-25T09:16:00.836Z,17.98
2022-12-25T09:18:28.959Z,16.95
2022-12-25T09:21:00.710Z,16.92
2022-12-25T09:23:29.232Z,17.67
2022-12-25T09:25:59.498Z,18.95
2022-12-25T09:28:27.863Z,22.40
2022-12-25T09:30:56.265Z,22.00
2022-12-25T09:33:26.575Z,19.55
2022-12-25T09:35:55.824Z,18.90
2022-12-25T09:38:24.349Z,17.45
2022-12-25T09:41:00.440Z,19.23
2022-12-25T09:43:31.925Z,17.92
2022-12-25T09:46:01.690Z,18.23
2022-12-25T09:48:34.767Z,19.98
2022-12-25T09:51:10.639Z,18.35
2022-12-25T09:53:41.690Z,18.75
2022-12-25T09:56:13.763Z,16.23
2022-12-25T09:58:41.801Z,16.05
2022-12-25T10:01:30.345Z,18.17
2022-12-25T10:04:28.118Z,16.65
2022-12-25T10:07:06.659Z,14.43
2022-12-25T10:09:48.423Z,15.05
2022-12-25T10:12:33.397Z,15.45
2022-12-25T10:15:23.020Z,14.10
2022-12-25T10:18:10.056Z,16.67
2022-12-25T10:20:47.384Z,15.45
2022-12-25T10:23:20.398Z,14.38
2022-12-25T10:25:49.428Z,12.75
2022-12-25T10:28:27.816Z,13.98
2022-12-25T10:30:59.778Z,15.88
2022-12-25T10:33:29.024Z,13.35
2022-12-25T10:35:58.820Z,14.15
2022-12-25T10:38:26.897Z,14.45
2022-12-25T10:41:18.944Z,14.30
2022-12-25T10:43:50.109Z,12.85
2022-12-25T10:46:20.440Z,13.27
2022-12-25T10:48:51.764Z,13.13
2022-12-25T10:51:31.793Z,17.73
2022-12-25T10:54:00.871Z,14.15
2022-12-25T10:56:29.004Z,15.65
2022-12-25T10:59:06.148Z,15.35
2022-12-25T11:01:34.768Z,15.93
2022-12-25T11:04:03.488Z,15.27
2022-12-25T11:06:34.625Z,12.07
2022-12-25T11:09:04.398Z,13.30
2022-12-25T11:11:32.832Z,16.40
2022-12-25T11:14:02.666Z,22.85
2022-12-25T11:16:33.819Z,35.42
2022-12-25T11:19:02.144Z,21.50
2022-12-25T11:21:33.898Z,28.98
2022-12-25T11:24:04.148Z,26.98
2022-12-25T11:26:37.588Z,16.27
2022-12-25T11:29:13.786Z,11.57
2022-12-25T11:31:44.321Z,11.05
2022-12-25T11:34:25.128Z,12.25
2022-12-25T11:36:54.719Z,11.40
2022-12-25T11:39:28.324Z,10.77
2022-12-25T11:42:00.955Z,10.85
2022-12-25T11:44:37.426Z,10.40
2022-12-25T11:47:14.742Z,10.52
2022-12-25T11:49:50.627Z,10.23
2022-12-25T11:52:22.436Z,10.32
2022-12-25T11:54:56.499Z,9.77
2022-12-25T11:57:27.631Z,10.20
2022-12-25T12:00:01.762Z,44.53
2022-12-25T12:02:37.669Z,16.75
2022-12-25T12:05:14.821Z,11.60
2022-12-25T12:07:54.391Z,10.90
2022-12-25T12:10:28.865Z,12.85
2022-12-25T12:13:04.947Z,12.02
2022-12-25T12:15:42.306Z,19.58
2022-12-25T12:18:19.037Z,13.45
2022-12-25T12:20:59.067Z,18.63
2022-12-25T12:23:30.024Z,46.88
2022-12-25T12:25:58.514Z,20.52
2022-12-25T12:28:29.081Z,15.85
2022-12-25T12:31:02.711Z,12.25
2022-12-25T12:33:35.875Z,15.85
2022-12-25T12:36:05.806Z,14.75
2022-12-25T12:38:36.275Z,22.23
2022-12-25T12:41:07.556Z,14.85
2022-12-25T12:43:40.567Z,12.20
2022-12-25T12:46:22.902Z,24.25
2022-12-25T12:48:57.465Z,13.07
2022-12-25T12:51:32.962Z,9.57
2022-12-25T12:54:20.947Z,9.13
2022-12-25T12:57:06.266Z,8.60
2022-12-25T12:59:40.989Z,9.70
2022-12-25T13:02:33.167Z,9.50
2022-12-25T13:05:06.381Z,7.65
2022-12-25T13:07:50.010Z,8.05
2022-12-25T13:10:30.558Z,7.97
2022-12-25T13:13:02.685Z,7.38
2022-12-25T13:15:39.287Z,8.07
2022-12-25T13:18:14.088Z,8.13
2022-12-25T13:20:48.400Z,9.18
2022-12-25T13:23:28.144Z,8.70
2022-12-25T13:25:59.762Z,8.95
2022-12-25T13:28:33.760Z,8.85
2022-12-25T13:31:09.245Z,11.10
2022-12-25T13:33:39.297Z,18.40
2022-12-25T13:36:12.997Z,20.13
2022-12-25T13:38:48.774Z,23.73
2022-12-25T13:41:50.535Z,16.35
2022-12-25T13:44:35.023Z,18.65
2022-12-25T13:47:19.039Z,9.30
2022-12-25T13:49:50.030Z,17.02
2022-12-25T13:52:22.388Z,14.23
2022-12-25T13:55:02.450Z,14.40
2022-12-25T13:57:40.903Z,14.13
2022-12-25T14:00:19.484Z,12.23
2022-12-25T14:02:48.405Z,9.68
2022-12-25T14:05:28.740Z,16.17
2022-12-25T14:07:58.833Z,16.50
2022-12-25T14:10:31.063Z,30.42
2022-12-25T14:13:04.823Z,19.33
2022-12-25T14:15:36.362Z,12.70
2022-12-25T14:18:04.594Z,11.55
2022-12-25T14:20:38.003Z,9.88
2022-12-25T14:23:07.343Z,9.10
2022-12-25T14:25:41.916Z,10.20
2022-12-25T14:28:19.707Z,17.10
2022-12-25T14:30:48.196Z,11.63
2022-12-25T14:33:18.993Z,14.50
2022-12-25T14:35:48.430Z,10.95
2022-12-25T14:38:24.041Z,9.75
2022-12-25T14:41:00.627Z,10.10
2022-12-25T14:43:31.303Z,9.55
2022-12-25T14:46:02.728Z,8.77
2022-12-25T14:48:32.819Z,9.73
2022-12-25T14:51:04.373Z,9.00
2022-12-25T14:53:37.334Z,9.20
2022-12-25T14:56:09.460Z,8.90
2022-12-25T14:58:43.827Z,9.68
2022-12-25T15:01:22.056Z,10.07
2022-12-25T15:03:50.643Z,9.65
2022-12-25T15:06:21.143Z,8.90
2022-12-25T15:08:58.076Z,8.07
2022-12-25T15:11:26.212Z,8.98
2022-12-25T15:13:55.601Z,9.50
2022-12-25T15:16:25.970Z,8.55
2022-12-25T15:18:55.517Z,10.73
2022-12-25T15:21:27.463Z,10.27
2022-12-25T15:23:56.919Z,9.98
2022-12-25T15:26:25.763Z,10.10
2022-12-25T15:28:55.214Z,10.48
2022-12-25T15:31:27.378Z,9.70
2022-12-25T15:33:57.398Z,9.98
2022-12-25T15:36:26.389Z,9.50
2022-12-25T15:38:54.932Z,11.27
2022-12-25T15:41:43.802Z,10.35
2022-12-25T15:44:13.823Z,15.38
2022-12-25T15:46:42.067Z,15.38
2022-12-25T15:49:11.094Z,21.85
2022-12-25T15:51:39.535Z,15.80
2022-12-25T15:54:07.609Z,23.17
2022-12-25T15:56:43.006Z,11.18
2022-12-25T15:59:14.538Z,21.80
2022-12-25T16:01:45.855Z,14.55
2022-12-25T16:04:14.111Z,14.45
2022-12-25T16:06:42.384Z,16.92
2022-12-25T16:09:12.122Z,13.82
2022-12-25T16:11:40.474Z,12.77
2022-12-25T16:14:08.956Z,13.75
2022-12-25T16:16:38.807Z,13.13
2022-12-25T16:19:07.248Z,15.90
2022-12-25T16:21:40.267Z,21.38
2022-12-25T16:24:08.942Z,19.63
2022-12-25T16:26:37.061Z,14.82
2022-12-25T16:29:07.542Z,13.57
2022-12-25T16:31:36.539Z,18.20
2022-12-25T16:34:07.263Z,14.43
2022-12-25T16:36:36.860Z,12.88
2022-12-25T16:39:05.618Z,25.52
2022-12-25T16:41:33.700Z,15.90
2022-12-25T16:44:09.109Z,13.75
2022-12-25T16:46:38.899Z,13.82
2022-12-25T16:49:08.760Z,15.07
2022-12-25T16:51:36.826Z,14.75
2022-12-25T16:54:05.081Z,16.50
2022-12-25T16:56:33.092Z,13.68
2022-12-25T16:59:01.224Z,13.52
2022-12-25T17:01:29.644Z,13.75
2022-12-25T17:04:01.510Z,13.77
2022-12-25T17:06:31.340Z,13.10
2022-12-25T17:09:02.281Z,13.65
2022-12-25T17:11:31.048Z,14.05
2022-12-25T17:14:02.093Z,13.88
2022-12-25T17:16:31.989Z,14.18
2022-12-25T17:19:02.514Z,15.15
2022-12-25T17:21:34.336Z,15.98
2022-12-25T17:24:04.093Z,15.65
2022-12-25T17:26:32.881Z,16.13
2022-12-25T17:29:01.395Z,17.70
2022-12-25T17:31:29.786Z,18.42
2022-12-25T17:33:57.875Z,18.25
2022-12-25T17:36:25.957Z,20.95
2022-12-25T17:38:55.354Z,19.95
2022-12-25T17:41:23.461Z,22.92
2022-12-25T17:43:51.485Z,23.10
2022-12-25T17:46:22.555Z,22.15
2022-12-25T17:48:51.008Z,23.30
2022-12-25T17:51:21.273Z,21.67
2022-12-25T17:53:50.977Z,21.10
2022-12-25T17:56:21.351Z,19.75
2022-12-25T17:58:51.490Z,21.23
2022-12-25T18:01:19.919Z,20.42
2022-12-25T18:03:48.267Z,21.23
2022-12-25T18:06:18.532Z,20.65
2022-12-25T18:08:47.660Z,24.45
2022-12-25T18:11:17.482Z,23.90
2022-12-25T18:13:50.073Z,27.25
2022-12-25T18:16:19.442Z,25.50
2022-12-25T18:18:51.831Z,25.30
2022-12-25T18:21:21.407Z,26.52
2022-12-25T18:23:50.529Z,26.60
2022-12-25T18:26:19.651Z,27.38
2022-12-25T18:28:50.109Z,29.42
2022-12-25T18:31:20.346Z,30.73
2022-12-25T18:33:49.339Z,29.13
2022-12-25T18:36:22.188Z,29.08
2022-12-25T18:38:51.155Z,31.05
2022-12-25T18:41:20.112Z,29.15
2022-12-25T18:43:53.428Z,29.45
2022-12-25T18:46:25.570Z,30.77
2022-12-25T18:48:54.258Z,28.33
2022-12-25T18:51:22.483Z,31.98
2022-12-25T18:53:51.343Z,29.08
2022-12-25T18:56:21.359Z,25.98
2022-12-25T18:58:50.871Z,32.30
2022-12-25T19:01:21.611Z,49.35
2022-12-25T19:03:50.490Z,48.45
2022-12-25T19:06:19.608Z,42.05
2022-12-25T19:08:48.078Z,32.03
2022-12-25T19:11:16.409Z,70.00
2022-12-25T19:13:44.736Z,39.45
2022-12-25T19:16:15.027Z,38.47
2022-12-25T19:18:44.334Z,36.05
2022-12-25T19:21:12.545Z,33.13
2022-12-25T19:23:40.747Z,39.15
2022-12-25T19:26:10.638Z,36.17
2022-12-25T19:28:39.885Z,32.72
2022-12-25T19:31:09.772Z,35.05
2022-12-25T19:33:42.506Z,37.25
2022-12-25T19:36:12.948Z,37.75
2022-12-25T19:38:41.222Z,43.33
2022-12-25T19:41:10.883Z,46.15
2022-12-25T19:43:41.486Z,39.25
2022-12-25T19:46:11.698Z,37.90
2022-12-25T19:48:41.249Z,37.63
2022-12-25T19:51:16.489Z,36.70
2022-12-25T19:53:45.578Z,38.65
2022-12-25T19:56:15.437Z,52.33
2022-12-25T19:58:43.829Z,49.38
2022-12-25T20:01:14.826Z,36.58
2022-12-25T20:03:46.291Z,31.70
2022-12-25T20:06:18.886Z,26.98
2022-12-25T20:08:47.586Z,34.15
2022-12-25T20:11:15.647Z,31.52
2022-12-25T20:13:43.812Z,26.27
2022-12-25T20:16:12.275Z,31.95
2022-12-25T20:18:40.949Z,27.10
2022-12-25T20:21:14.122Z,25.58
2022-12-25T20:23:42.471Z,26.75
2022-12-25T20:26:11.985Z,25.52
2022-12-25T20:28:41.674Z,30.08
2022-12-25T20:31:11.217Z,31.30
2022-12-25T20:33:39.399Z,26.52
2022-12-25T20:36:08.264Z,26.90
2022-12-25T20:38:38.057Z,23.58
2022-12-25T20:43:57.188Z,25.65
2022-12-25T20:46:25.840Z,26.75
2022-12-25T20:48:54.338Z,26.35
2022-12-25T20:51:24.437Z,28.52
2022-12-25T20:53:54.636Z,27.85
2022-12-25T20:56:26.655Z,26.58
2022-12-25T20:58:56.003Z,31.75
2022-12-25T21:01:24.622Z,34.95
2022-12-25T21:03:53.154Z,29.02
2022-12-25T21:06:21.655Z,29.35
2022-12-25T21:08:49.935Z,25.90
2022-12-25T21:11:21.351Z,32.13
2022-12-25T21:13:50.290Z,25.02
2022-12-25T21:16:21.530Z,28.50
2022-12-25T21:18:50.462Z,26.63
2022-12-25T21:21:18.543Z,24.80
2022-12-25T21:23:46.916Z,25.85
2022-12-25T21:26:19.069Z,26.17
2022-12-25T21:28:49.755Z,25.90
2022-12-25T21:31:18.228Z,26.67
2022-12-25T21:33:55.127Z,29.23
2022-12-25T21:36:27.214Z,32.53
2022-12-25T21:38:57.443Z,29.73
2022-12-25T21:41:26.739Z,35.15
2022-12-25T21:43:56.967Z,31.88
2022-12-25T21:46:25.751Z,37.00
2022-12-25T21:48:53.949Z,39.05
2022-12-25T21:51:42.043Z,32.75
2022-12-25T21:54:10.907Z,30.90
2022-12-25T21:56:44.565Z,28.45
2022-12-25T21:59:17.112Z,30.88
2022-12-25T22:01:45.797Z,37.72
2022-12-25T22:04:15.378Z,38.22
2022-12-25T22:07:01.223Z,33.90
2022-12-25T22:09:29.462Z,34.55
2022-12-25T22:12:16.165Z,36.97
2022-12-25T22:14:57.000Z,26.63
2022-12-25T22:17:44.764Z,29.13
2022-12-25T22:20:15.797Z,28.13
2022-12-25T22:22:44.145Z,23.92
2022-12-25T22:25:12.894Z,22.77
2022-12-25T22:27:42.503Z,23.52
2022-12-25T22:30:15.310Z,20.35
2022-12-25T22:32:43.468Z,21.55
2022-12-25T22:35:13.211Z,21.63
2022-12-25T22:37:42.154Z,21.40
2022-12-25T22:40:13.164Z,24.10
2022-12-25T22:42:41.864Z,22.73
2022-12-25T22:45:12.762Z,26.67
2022-12-25T22:47:41.393Z,23.10
2022-12-25T22:50:10.346Z,24.48
2022-12-25T22:52:38.924Z,27.42
2022-12-25T22:55:09.039Z,28.88
2022-12-25T22:57:37.230Z,25.77
2022-12-25T23:00:06.578Z,28.15
2022-12-25T23:02:36.343Z,27.42
2022-12-25T23:05:04.869Z,29.58
2022-12-25T23:07:32.945Z,29.45
2022-12-25T23:10:01.060Z,30.13
2022-12-25T23:12:46.242Z,29.63
2022-12-25T23:15:14.343Z,33.25
2022-12-25T23:18:01.527Z,32.13
2022-12-25T23:20:46.698Z,32.92
2022-12-25T23:23:33.953Z,33.10
2022-12-25T23:26:11.183Z,30.20
2022-12-25T23:29:00.181Z,30.30
2022-12-25T23:31:31.852Z,23.60
2022-12-25T23:34:02.210Z,28.95
2022-12-25T23:36:30.549Z,26.70
2022-12-25T23:39:04.736Z,28.90
2022-12-25T23:41:37.052Z,24.83
2022-12-25T23:44:05.665Z,26.77
2022-12-25T23:46:33.792Z,22.88
2022-12-25T23:49:03.258Z,24.70
2022-12-25T23:51:31.340Z,24.50
2022-12-25T23:53:59.407Z,24.83
2022-12-25T23:56:27.444Z,27.05
2022-12-25T23:58:55.552Z,25.67
